createdAt,value
2019-02-05T00:03:41.712Z,9.33
2019-02-05T00:06:08.283Z,8.33
2019-02-05T00:08:35.642Z,10.13
2019-02-05T00:13:47.250Z,8.83
2019-02-05T00:16:14.077Z,10.63
2019-02-05T00:18:40.350Z,9.43
2019-02-05T00:21:06.684Z,10.23
2019-02-05T00:23:34.931Z,10.43
2019-02-05T00:26:06.172Z,12.33
2019-02-05T00:28:30.297Z,11.40
2019-02-05T00:30:59.628Z,10.73
2019-02-05T00:33:27.299Z,11.67
2019-02-05T00:35:53.747Z,11.90
2019-02-05T00:38:20.808Z,11.10
2019-02-05T00:40:48.422Z,9.83
2019-02-05T00:43:15.769Z,13.13
2019-02-05T00:45:44.457Z,10.80
2019-02-05T00:48:12.807Z,9.60
2019-02-05T00:50:40.145Z,10.00
2019-02-05T00:53:06.435Z,12.10
2019-02-05T00:55:32.676Z,8.07
2019-02-05T00:57:59.153Z,9.43
2019-02-05T01:00:25.628Z,14.87
2019-02-05T01:02:52.918Z,10.13
2019-02-05T01:05:24.740Z,11.03
2019-02-05T01:07:52.186Z,12.73
2019-02-05T01:12:54.284Z,11.43
2019-02-05T01:15:27.653Z,14.03
2019-02-05T01:17:54.011Z,11.47
2019-02-05T01:20:21.167Z,11.43
2019-02-05T01:22:49.694Z,14.43
2019-02-05T01:25:16.031Z,14.27
2019-02-05T01:27:42.289Z,12.83
2019-02-05T01:30:08.678Z,16.97
2019-02-05T01:32:34.992Z,15.97
2019-02-05T01:35:01.265Z,10.93
2019-02-05T01:37:27.589Z,18.17
2019-02-05T01:39:53.930Z,12.83
2019-02-05T01:42:20.289Z,13.70
2019-02-05T01:44:47.499Z,12.30
2019-02-05T01:47:17.039Z,13.10
2019-02-05T01:50:08.268Z,14.57
2019-02-05T01:52:41.151Z,18.40
2019-02-05T01:55:14.310Z,8.53
2019-02-05T01:57:40.587Z,15.73
2019-02-05T02:00:06.980Z,14.03
2019-02-05T02:02:33.752Z,16.23
2019-02-05T02:05:00.137Z,15.30
2019-02-05T02:07:26.448Z,18.20
2019-02-05T02:09:52.839Z,16.47
2019-02-05T02:12:20.871Z,16.30
2019-02-05T02:14:49.777Z,11.73
2019-02-05T02:17:16.746Z,15.07
2019-02-05T02:19:45.085Z,17.17
2019-02-05T02:22:11.492Z,16.80
2019-02-05T02:24:37.724Z,16.27
2019-02-05T02:27:04.247Z,18.83
2019-02-05T02:29:31.222Z,18.03
2019-02-05T02:31:58.226Z,23.93
2019-02-05T02:34:25.454Z,15.83
2019-02-05T02:36:51.835Z,19.67
2019-02-05T02:39:18.334Z,16.17
2019-02-05T02:41:44.687Z,16.97
2019-02-05T02:46:46.028Z,22.17
2019-02-05T02:49:12.440Z,21.47
2019-02-05T02:51:38.745Z,16.10
2019-02-05T02:54:05.083Z,18.60
2019-02-05T02:56:31.363Z,21.23
2019-02-05T02:58:57.560Z,17.50
2019-02-05T03:01:23.821Z,15.30
2019-02-05T03:03:50.121Z,18.53
2019-02-05T03:06:16.367Z,18.40
2019-02-05T03:08:42.733Z,23.57
2019-02-05T03:11:10.184Z,22.30
2019-02-05T03:13:36.608Z,18.33
2019-02-05T03:16:03.042Z,24.30
2019-02-05T03:18:29.410Z,26.07
2019-02-05T03:20:55.832Z,22.87
2019-02-05T03:23:22.065Z,20.70
2019-02-05T03:25:48.332Z,17.97
2019-02-05T03:28:14.459Z,22.27
2019-02-05T03:30:41.447Z,28.83
2019-02-05T03:33:08.425Z,19.93
2019-02-05T03:35:35.381Z,22.97
2019-02-05T03:38:01.603Z,20.47
2019-02-05T03:40:28.047Z,25.87
2019-02-05T03:42:55.109Z,24.63
2019-02-05T03:45:21.409Z,23.47
2019-02-05T03:47:47.722Z,24.53
2019-02-05T03:50:14.428Z,22.53
2019-02-05T03:52:40.730Z,28.43
2019-02-05T03:55:07.152Z,25.17
2019-02-05T03:57:33.465Z,26.20
2019-02-05T03:59:59.687Z,25.13
2019-02-05T04:02:26.011Z,24.73
2019-02-05T04:04:52.249Z,24.50
2019-02-05T04:07:19.354Z,22.93
2019-02-05T04:09:45.627Z,21.30
2019-02-05T04:12:12.744Z,25.00
2019-02-05T04:14:39.055Z,28.87
2019-02-05T04:17:05.376Z,25.40
2019-02-05T04:19:31.667Z,28.17
2019-02-05T04:21:57.849Z,20.43
2019-02-05T04:24:24.085Z,26.87
2019-02-05T04:26:50.903Z,22.27
2019-02-05T04:29:17.895Z,24.47
2019-02-05T04:31:44.971Z,25.07
2019-02-05T04:34:11.185Z,28.67
2019-02-05T04:36:37.490Z,24.77
2019-02-05T04:39:03.765Z,25.87
2019-02-05T04:41:29.970Z,19.83
2019-02-05T04:43:56.286Z,26.90
2019-02-05T04:46:23.284Z,25.83
2019-02-05T04:48:49.955Z,27.23
2019-02-05T04:51:16.209Z,22.50
2019-02-05T04:53:43.427Z,38.23
2019-02-05T04:56:10.509Z,29.50
2019-02-05T04:58:36.846Z,31.03
2019-02-05T05:01:03.971Z,26.53
2019-02-05T05:03:33.733Z,20.90
2019-02-05T05:05:57.191Z,23.77
2019-02-05T05:08:23.403Z,26.07
2019-02-05T05:10:49.588Z,30.90
2019-02-05T05:13:15.815Z,26.07
2019-02-05T05:15:42.046Z,22.93
2019-02-05T05:18:08.265Z,29.13
2019-02-05T05:20:35.253Z,24.77
2019-02-05T05:23:01.478Z,25.23
2019-02-05T05:25:27.622Z,25.30
2019-02-05T05:27:54.651Z,27.27
2019-02-05T05:30:20.869Z,25.77
2019-02-05T05:32:47.093Z,23.90
2019-02-05T05:35:13.321Z,23.10
2019-02-05T05:37:39.586Z,35.80
2019-02-05T05:40:05.767Z,22.07
2019-02-05T05:42:31.970Z,24.70
2019-02-05T05:44:58.158Z,31.60
2019-02-05T05:47:24.410Z,29.27
2019-02-05T05:49:50.619Z,22.93
2019-02-05T05:52:17.679Z,22.67
2019-02-05T05:54:43.923Z,23.30
2019-02-05T05:57:10.292Z,24.33
2019-02-05T05:59:36.721Z,22.53
2019-02-05T06:02:03.137Z,24.00
2019-02-05T06:04:30.378Z,27.30
2019-02-05T06:06:57.461Z,21.97
2019-02-05T06:09:23.887Z,28.23
2019-02-05T06:11:50.845Z,32.47
2019-02-05T06:14:17.178Z,21.43
2019-02-05T06:16:45.607Z,25.10
2019-02-05T06:19:12.635Z,25.23
2019-02-05T06:21:39.648Z,27.37
2019-02-05T06:24:06.758Z,30.90
2019-02-05T06:26:35.327Z,29.73
2019-02-05T06:29:02.670Z,28.97
2019-02-05T06:31:29.246Z,23.10
2019-02-05T06:33:56.129Z,26.53
2019-02-05T06:36:22.474Z,26.07
2019-02-05T06:38:49.420Z,21.57
2019-02-05T06:41:18.617Z,24.90
2019-02-05T06:43:47.435Z,30.53
2019-02-05T06:46:14.870Z,19.30
2019-02-05T06:48:41.353Z,20.90
2019-02-05T06:51:07.918Z,23.03
2019-02-05T06:53:34.350Z,26.00
2019-02-05T06:56:00.855Z,27.33
2019-02-05T06:58:28.782Z,23.30
2019-02-05T07:00:55.585Z,24.80
2019-02-05T07:03:22.819Z,25.43
2019-02-05T07:05:49.283Z,28.13
2019-02-05T07:08:16.768Z,22.77
2019-02-05T07:10:43.197Z,23.63
2019-02-05T07:13:09.534Z,19.30
2019-02-05T07:15:36.013Z,32.57
2019-02-05T07:18:02.781Z,34.47
2019-02-05T07:20:29.189Z,27.47
2019-02-05T07:22:55.933Z,28.43
2019-02-05T07:25:22.191Z,29.67
2019-02-05T07:27:48.649Z,29.23
2019-02-05T07:30:15.143Z,31.13
2019-02-05T07:32:42.406Z,34.03
2019-02-05T07:35:08.697Z,28.70
2019-02-05T07:37:35.056Z,26.23
2019-02-05T07:40:01.344Z,27.03
2019-02-05T07:42:27.698Z,24.70
2019-02-05T07:44:54.194Z,28.33
2019-02-05T07:47:23.449Z,25.30
2019-02-05T07:49:48.715Z,30.80
2019-02-05T07:52:16.060Z,26.70
2019-02-05T07:54:43.315Z,28.03
2019-02-05T07:57:09.844Z,25.57
2019-02-05T07:59:37.082Z,25.87
2019-02-05T08:02:03.427Z,23.43
2019-02-05T08:04:30.479Z,23.80
2019-02-05T08:06:57.461Z,22.70
2019-02-05T08:09:23.934Z,25.47
2019-02-05T08:11:51.415Z,25.77
2019-02-05T08:14:18.676Z,28.57
2019-02-05T08:16:47.590Z,19.67
2019-02-05T08:19:11.357Z,28.27
2019-02-05T08:21:37.549Z,27.73
2019-02-05T08:24:03.822Z,28.40
2019-02-05T08:26:30.096Z,28.53
2019-02-05T08:28:56.415Z,32.77
2019-02-05T08:31:23.461Z,36.73
2019-02-05T08:33:49.686Z,34.87
2019-02-05T08:36:15.894Z,31.20
2019-02-05T08:38:42.146Z,33.87
2019-02-05T08:41:08.402Z,33.07
2019-02-05T08:43:34.658Z,32.17
2019-02-05T08:46:00.932Z,31.47
2019-02-05T08:48:28.024Z,31.03
2019-02-05T08:50:54.366Z,32.93
2019-02-05T08:53:20.786Z,28.90
2019-02-05T08:55:47.078Z,27.23
2019-02-05T08:58:13.343Z,24.50
2019-02-05T09:00:39.683Z,27.60
2019-02-05T09:03:06.000Z,28.10
2019-02-05T09:05:32.224Z,19.90
2019-02-05T09:07:58.454Z,25.60
2019-02-05T09:10:24.790Z,26.77
2019-02-05T09:12:51.492Z,29.17
2019-02-05T09:15:28.835Z,24.83
2019-02-05T09:17:44.075Z,22.77
2019-02-05T09:20:10.345Z,25.27
2019-02-05T09:22:37.140Z,29.37
2019-02-05T09:25:03.394Z,24.23
2019-02-05T09:27:29.604Z,38.23
2019-02-05T09:29:55.802Z,23.90
2019-02-05T09:32:22.091Z,27.87
2019-02-05T09:34:48.413Z,29.90
2019-02-05T09:37:15.414Z,31.23
2019-02-05T09:39:41.685Z,25.30
2019-02-05T09:42:08.106Z,31.93
2019-02-05T09:44:34.438Z,24.70
2019-02-05T09:47:00.714Z,24.53
2019-02-05T09:49:27.170Z,27.47
2019-02-05T09:52:01.047Z,33.97
2019-02-05T09:55:11.940Z,24.57
2019-02-05T09:57:38.303Z,31.47
2019-02-05T10:00:05.979Z,24.97
2019-02-05T10:02:33.301Z,24.83
2019-02-05T10:04:59.581Z,25.67
2019-02-05T10:07:25.958Z,22.47
2019-02-05T10:09:52.521Z,25.03
2019-02-05T10:12:18.955Z,22.83
2019-02-05T10:14:45.196Z,27.13
2019-02-05T10:17:11.419Z,23.37
2019-02-05T10:19:37.790Z,25.07
2019-02-05T10:22:03.994Z,28.37
2019-02-05T10:24:31.155Z,21.73
2019-02-05T10:26:57.365Z,21.80
2019-02-05T10:29:24.364Z,27.90
2019-02-05T10:31:50.765Z,21.60
2019-02-05T10:34:17.877Z,20.43
2019-02-05T10:36:44.240Z,20.73
2019-02-05T10:39:10.647Z,29.03
2019-02-05T10:41:36.862Z,18.27
2019-02-05T10:44:03.156Z,30.10
2019-02-05T10:46:29.411Z,23.83
2019-02-05T10:48:55.726Z,23.23
2019-02-05T10:51:22.059Z,25.00
2019-02-05T10:53:48.587Z,21.17
2019-02-05T10:56:14.866Z,20.90
2019-02-05T10:58:41.137Z,25.90
2019-02-05T11:01:07.507Z,22.90
2019-02-05T11:03:33.785Z,21.37
2019-02-05T11:06:00.837Z,30.40
2019-02-05T11:08:27.134Z,22.17
2019-02-05T11:10:53.514Z,20.20
2019-02-05T11:13:19.786Z,21.03
2019-02-05T11:15:46.065Z,24.27
2019-02-05T11:18:12.340Z,24.90
2019-02-05T11:20:39.323Z,24.33
2019-02-05T11:23:05.531Z,21.03
2019-02-05T11:25:31.683Z,19.20
2019-02-05T11:27:57.892Z,16.43
2019-02-05T11:30:24.093Z,22.13
2019-02-05T11:32:52.841Z,18.73
2019-02-05T11:35:17.237Z,17.33
2019-02-05T11:37:43.442Z,16.97
2019-02-05T11:40:10.405Z,17.70
2019-02-05T11:42:36.612Z,20.40
2019-02-05T11:45:03.570Z,14.87
2019-02-05T11:47:29.788Z,17.40
2019-02-05T11:49:57.180Z,14.17
2019-02-05T11:52:23.640Z,18.20
2019-02-05T11:54:52.031Z,17.60
2019-02-05T11:57:20.410Z,17.47
2019-02-05T11:59:46.817Z,19.47
2019-02-05T12:02:13.092Z,21.43
2019-02-05T12:04:39.352Z,21.83
2019-02-05T12:07:05.761Z,20.33
2019-02-05T12:09:32.038Z,21.03
2019-02-05T12:11:58.277Z,25.40
2019-02-05T12:14:24.616Z,16.97
2019-02-05T12:16:50.865Z,23.57
2019-02-05T12:19:17.133Z,20.17
2019-02-05T12:21:43.421Z,17.33
2019-02-05T12:24:10.763Z,19.67
2019-02-05T12:26:37.242Z,19.00
2019-02-05T12:29:03.670Z,17.97
2019-02-05T12:31:29.987Z,19.00
2019-02-05T12:33:56.251Z,22.23
2019-02-05T12:36:22.487Z,19.80
2019-02-05T12:38:49.399Z,17.90
2019-02-05T12:41:15.602Z,25.97
2019-02-05T12:43:42.490Z,27.23
2019-02-05T12:46:08.842Z,23.70
2019-02-05T12:48:35.128Z,23.37
2019-02-05T12:51:01.388Z,23.53
2019-02-05T12:53:27.642Z,22.20
2019-02-05T12:55:53.909Z,19.60
2019-02-05T12:58:21.024Z,24.17
2019-02-05T13:00:56.615Z,20.27
2019-02-05T13:03:14.294Z,19.10
2019-02-05T13:05:40.547Z,21.13
2019-02-05T13:08:06.794Z,21.67
2019-02-05T13:10:33.072Z,25.03
2019-02-05T13:13:00.121Z,22.70
2019-02-05T13:15:27.048Z,26.83
2019-02-05T13:17:53.292Z,23.17
2019-02-05T13:20:19.535Z,22.27
2019-02-05T13:22:48.249Z,17.50
2019-02-05T13:25:15.762Z,20.27
2019-02-05T13:27:43.096Z,28.00
2019-02-05T13:30:09.447Z,23.83
2019-02-05T13:32:36.471Z,26.10
2019-02-05T13:35:02.679Z,23.33
2019-02-05T13:37:28.921Z,22.87
2019-02-05T13:39:55.881Z,30.30
2019-02-05T13:42:22.406Z,20.33
2019-02-05T13:44:49.207Z,21.73
2019-02-05T13:47:15.415Z,28.10
2019-02-05T13:49:41.750Z,27.43
2019-02-05T13:52:08.082Z,22.60
2019-02-05T13:54:34.429Z,22.00
2019-02-05T13:57:00.812Z,24.13
2019-02-05T13:59:26.962Z,20.90
2019-02-05T14:01:53.129Z,23.50
2019-02-05T14:04:20.112Z,22.77
2019-02-05T14:06:46.336Z,26.73
2019-02-05T14:09:12.486Z,25.17
2019-02-05T14:11:38.735Z,24.23
2019-02-05T14:14:04.898Z,22.50
2019-02-05T14:16:31.098Z,22.77
2019-02-05T14:18:57.285Z,26.30
2019-02-05T14:21:24.070Z,22.40
2019-02-05T14:23:50.325Z,22.30
2019-02-05T14:26:16.512Z,27.57
2019-02-05T14:28:42.730Z,23.40
2019-02-05T14:31:09.605Z,24.87
2019-02-05T14:33:35.766Z,20.77
2019-02-05T14:36:03.652Z,23.53
2019-02-05T14:38:29.823Z,20.23
2019-02-05T14:40:57.027Z,26.70
2019-02-05T14:43:24.564Z,27.57
2019-02-05T14:45:50.749Z,23.67
2019-02-05T14:48:17.014Z,25.83
2019-02-05T14:50:43.182Z,24.83
2019-02-05T14:53:09.371Z,23.50
2019-02-05T14:55:36.169Z,24.00
2019-02-05T14:58:02.884Z,21.80
2019-02-05T15:00:29.000Z,18.50
2019-02-05T15:03:02.360Z,24.80
2019-02-05T15:05:29.496Z,24.77
2019-02-05T15:07:55.693Z,25.00
2019-02-05T15:10:21.797Z,24.50
2019-02-05T15:12:47.920Z,22.97
2019-02-05T15:15:14.082Z,23.40
2019-02-05T15:17:40.274Z,19.50
2019-02-05T15:20:06.553Z,21.60
2019-02-05T15:22:33.405Z,25.97
2019-02-05T15:24:59.537Z,23.07
2019-02-05T15:27:25.678Z,27.33
2019-02-05T15:29:52.556Z,22.03
2019-02-05T15:32:18.743Z,24.10
2019-02-05T15:34:44.909Z,24.77
2019-02-05T15:37:11.100Z,23.20
2019-02-05T15:39:37.510Z,23.97
2019-02-05T15:42:03.664Z,21.53
2019-02-05T15:44:30.591Z,19.93
2019-02-05T15:46:56.692Z,17.33
2019-02-05T15:49:22.885Z,19.30
2019-02-05T15:51:49.971Z,24.87
2019-02-05T15:54:16.221Z,26.83
2019-02-05T15:56:42.939Z,20.50
2019-02-05T15:59:09.199Z,19.47
2019-02-05T16:01:35.322Z,21.10
2019-02-05T16:04:01.575Z,20.60
2019-02-05T16:06:28.282Z,20.93
2019-02-05T16:08:54.426Z,20.50
2019-02-05T16:11:20.506Z,24.90
2019-02-05T16:13:46.663Z,23.83
2019-02-05T16:16:12.789Z,25.23
2019-02-05T16:18:39.703Z,23.00
2019-02-05T16:21:06.627Z,23.87
2019-02-05T16:23:32.691Z,22.73
2019-02-05T16:25:58.843Z,17.13
2019-02-05T16:28:24.949Z,23.50
2019-02-05T16:30:51.135Z,26.07
2019-02-05T16:33:17.318Z,19.87
2019-02-05T16:35:43.423Z,18.00
2019-02-05T16:38:09.832Z,22.10
2019-02-05T16:40:36.224Z,26.27
2019-02-05T16:43:03.589Z,26.53
2019-02-05T16:45:29.881Z,27.20
2019-02-05T16:47:56.083Z,18.87
2019-02-05T16:50:22.500Z,22.77
2019-02-05T16:52:48.659Z,22.60
2019-02-05T16:55:15.532Z,22.77
2019-02-05T16:57:41.681Z,18.93
2019-02-05T17:00:08.071Z,18.83
2019-02-05T17:02:34.228Z,19.37
2019-02-05T17:05:01.345Z,19.57
2019-02-05T17:07:28.255Z,28.97
2019-02-05T17:09:55.134Z,19.13
2019-02-05T17:12:21.294Z,18.83
2019-02-05T17:14:47.467Z,22.50
2019-02-05T17:17:14.945Z,20.37
2019-02-05T17:19:42.640Z,24.10
2019-02-05T17:22:08.955Z,17.43
2019-02-05T17:24:35.106Z,25.43
2019-02-05T17:27:01.827Z,17.57
2019-02-05T17:29:29.669Z,19.57
2019-02-05T17:31:55.834Z,24.20
2019-02-05T17:34:22.774Z,19.20
2019-02-05T17:36:49.019Z,24.10
2019-02-05T17:39:15.154Z,21.40
2019-02-05T17:41:42.022Z,17.50
2019-02-05T17:44:08.101Z,16.57
2019-02-05T17:46:34.259Z,23.33
2019-02-05T17:49:01.160Z,21.93
2019-02-05T17:51:27.227Z,21.87
2019-02-05T17:53:54.132Z,18.20
2019-02-05T17:56:20.256Z,28.40
2019-02-05T17:58:46.413Z,23.93
2019-02-05T18:01:13.311Z,25.13
2019-02-05T18:03:39.456Z,23.73
2019-02-05T18:06:05.628Z,22.37
2019-02-05T18:08:31.750Z,23.07
2019-02-05T18:10:57.919Z,22.47
2019-02-05T18:13:24.083Z,19.87
2019-02-05T18:15:50.277Z,23.47
2019-02-05T18:18:16.451Z,22.73
2019-02-05T18:20:42.993Z,20.43
2019-02-05T18:23:09.864Z,25.27
2019-02-05T18:25:36.091Z,22.33
2019-02-05T18:28:02.969Z,24.90
2019-02-05T18:30:29.867Z,27.60
2019-02-05T18:33:03.320Z,21.83
2019-02-05T18:35:22.290Z,23.57
2019-02-05T18:37:49.390Z,25.60
2019-02-05T18:40:16.323Z,24.57
2019-02-05T18:42:42.745Z,26.67
2019-02-05T18:45:08.927Z,22.87
2019-02-05T18:47:35.132Z,20.70
2019-02-05T18:50:01.238Z,24.10
2019-02-05T18:52:27.443Z,22.77
2019-02-05T18:54:54.346Z,24.17
2019-02-05T18:57:20.571Z,23.37
2019-02-05T18:59:46.711Z,20.67
2019-02-05T19:02:12.847Z,23.50
2019-02-05T19:04:38.948Z,22.63
2019-02-05T19:07:05.787Z,21.17
2019-02-05T19:09:31.941Z,21.40
2019-02-05T19:11:58.060Z,25.63
2019-02-05T19:14:24.296Z,22.40
2019-02-05T19:16:50.528Z,22.30
2019-02-05T19:19:19.799Z,28.03
2019-02-05T19:21:46.522Z,23.67
2019-02-05T19:24:13.400Z,21.43
2019-02-05T19:26:39.578Z,27.37
2019-02-05T19:29:06.466Z,26.43
2019-02-05T19:31:32.614Z,24.23
2019-02-05T19:33:58.814Z,21.63
2019-02-05T19:36:25.078Z,20.00
2019-02-05T19:38:51.246Z,23.73
2019-02-05T19:41:17.405Z,26.03
2019-02-05T19:43:44.416Z,25.97
2019-02-05T19:46:11.383Z,21.37
2019-02-05T19:48:37.571Z,26.33
2019-02-05T19:51:03.747Z,28.37
2019-02-05T19:53:29.894Z,24.50
2019-02-05T19:55:56.220Z,23.67
2019-02-05T19:58:22.413Z,24.27
2019-02-05T20:00:49.376Z,22.67
2019-02-05T20:03:15.597Z,23.23
2019-02-05T20:05:42.355Z,26.10
2019-02-05T20:08:09.113Z,22.10
2019-02-05T20:10:36.061Z,24.00
2019-02-05T20:13:02.230Z,26.07
2019-02-05T20:15:28.433Z,26.63
2019-02-05T20:17:54.620Z,27.20
2019-02-05T20:20:20.780Z,26.33
2019-02-05T20:22:47.418Z,19.50
2019-02-05T20:25:13.619Z,25.47
2019-02-05T20:27:39.708Z,27.37
2019-02-05T20:30:05.887Z,23.03
2019-02-05T20:32:33.019Z,28.53
2019-02-05T20:34:59.196Z,24.80
2019-02-05T20:37:25.325Z,25.40
2019-02-05T20:39:52.494Z,24.93
2019-02-05T20:42:18.654Z,19.67
2019-02-05T20:44:44.826Z,27.63
2019-02-05T20:47:11.045Z,27.07
2019-02-05T20:49:38.683Z,26.37
2019-02-05T20:52:04.840Z,23.27
2019-02-05T20:54:31.030Z,19.77
2019-02-05T20:56:57.297Z,25.93
2019-02-05T20:59:23.413Z,21.60
2019-02-05T21:01:49.702Z,23.00
2019-02-05T21:04:15.827Z,23.40
2019-02-05T21:06:42.021Z,22.43
2019-02-05T21:09:09.257Z,24.50
2019-02-05T21:11:35.513Z,17.43
2019-02-05T21:14:01.663Z,26.90
2019-02-05T21:16:27.797Z,22.50
2019-02-05T21:18:55.565Z,22.37
2019-02-05T21:21:22.464Z,21.70
2019-02-05T21:23:48.551Z,23.20
2019-02-05T21:26:14.750Z,26.07
2019-02-05T21:28:41.872Z,24.33
2019-02-05T21:31:08.035Z,24.40
2019-02-05T21:33:34.252Z,19.27
2019-02-05T21:36:00.363Z,22.63
2019-02-05T21:38:28.262Z,22.07
2019-02-05T21:40:54.457Z,22.37
2019-02-05T21:43:21.420Z,27.30
2019-02-05T21:45:47.555Z,23.23
2019-02-05T21:48:14.476Z,21.60
2019-02-05T21:50:40.753Z,22.00
2019-02-05T21:53:06.939Z,23.77
2019-02-05T21:55:33.126Z,22.10
2019-02-05T21:57:59.303Z,22.47
2019-02-05T22:00:25.399Z,19.03
2019-02-05T22:02:52.184Z,23.20
2019-02-05T22:05:18.259Z,18.23
2019-02-05T22:07:44.427Z,20.73
2019-02-05T22:10:10.631Z,26.67
2019-02-05T22:12:37.607Z,21.90
2019-02-05T22:15:03.783Z,22.53
2019-02-05T22:17:30.534Z,27.27
2019-02-05T22:19:56.652Z,20.27
2019-02-05T22:22:22.855Z,24.83
2019-02-05T22:24:48.999Z,21.13
2019-02-05T22:27:15.256Z,24.37
2019-02-05T22:29:41.396Z,21.27
2019-02-05T22:32:07.565Z,21.70
2019-02-05T22:34:39.434Z,22.30
2019-02-05T22:37:00.069Z,27.60
2019-02-05T22:39:26.231Z,21.67
2019-02-05T22:41:52.398Z,21.43
2019-02-05T22:44:18.614Z,30.37
2019-02-05T22:46:45.089Z,26.07
2019-02-05T22:49:11.980Z,27.77
2019-02-05T22:51:38.879Z,27.73
2019-02-05T22:54:06.703Z,17.67
2019-02-05T22:56:33.811Z,24.43
2019-02-05T22:59:00.647Z,23.67
2019-02-05T23:01:26.742Z,20.57
2019-02-05T23:03:53.675Z,23.47
2019-02-05T23:06:19.835Z,21.00
2019-02-05T23:08:46.021Z,23.90
2019-02-05T23:11:12.973Z,20.17
2019-02-05T23:13:39.183Z,22.80
2019-02-05T23:16:05.346Z,26.67
2019-02-05T23:18:32.309Z,21.23
2019-02-05T23:20:58.502Z,23.10
2019-02-05T23:23:24.605Z,24.97
2019-02-05T23:25:51.258Z,22.30
2019-02-05T23:28:18.095Z,20.40
2019-02-05T23:30:44.188Z,23.60
2019-02-05T23:33:10.302Z,22.67
2019-02-05T23:35:36.540Z,22.53
2019-02-05T23:38:02.594Z,16.83
2019-02-05T23:40:28.658Z,26.80
2019-02-05T23:42:54.782Z,20.33
2019-02-05T23:45:20.842Z,21.23
2019-02-05T23:47:47.401Z,24.40
2019-02-05T23:50:13.499Z,22.47
2019-02-05T23:52:39.589Z,23.00
2019-02-05T23:55:05.733Z,19.83
2019-02-05T23:57:31.873Z,23.03
2019-02-05T23:59:57.977Z,20.03
